Time;durP1;ratioP1;P1;durP2;ratioP2;P2;SDS_P1;SDS_P2;PMS_P1;PMS_P2;Temp;Humidity;BMP_temperature;BMP_pressure;BME280_temperature;BME280_humidity;BME280_pressure;Samples;Min_cycle;Max_cycle;Signal;HPM_P1;HPM_P2
2021/06/10 00:00:49;;;;;;;5.97;4.88;;;22.50;96.70;;;;;;5101125;27;20060;-77
2021/06/10 00:03:18;;;;;;;7.78;4.95;;;22.50;96.70;;;;;;5098661;27;20043;-75
2021/06/10 00:05:49;;;;;;;7.00;4.80;;;22.60;96.70;;;;;;5103394;27;20032;-76
2021/06/10 00:08:18;;;;;;;4.50;4.10;;;22.60;96.70;;;;;;5099631;28;20050;-76
2021/06/10 00:10:48;;;;;;;5.95;4.93;;;22.60;96.70;;;;;;5101936;27;20287;-76
2021/06/10 00:13:18;;;;;;;7.95;4.50;;;22.40;96.70;;;;;;5100070;27;20070;-76
2021/06/10 00:15:48;;;;;;;4.57;4.18;;;22.40;96.70;;;;;;5098207;27;20049;-76
2021/06/10 00:18:19;;;;;;;6.00;4.32;;;22.40;96.70;;;;;;5095125;28;20134;-75
2021/06/10 00:20:56;;;;;;;5.20;4.70;;;22.40;96.70;;;;;;5093713;28;20412;-76
2021/06/10 00:23:25;;;;;;;5.07;3.80;;;22.30;96.70;;;;;;5109320;27;20433;-76
2021/06/10 00:25:53;;;;;;;6.10;4.47;;;22.30;96.70;;;;;;5096904;28;20039;-76
2021/06/10 00:28:22;;;;;;;6.35;4.50;;;22.20;96.70;;;;;;5100326;27;20445;-76
2021/06/10 00:30:51;;;;;;;5.65;4.13;;;22.20;96.70;;;;;;5097260;27;20520;-76
2021/06/10 00:33:21;;;;;;;5.35;4.40;;;22.20;96.70;;;;;;5104511;27;20035;-76
2021/06/10 00:35:51;;;;;;;7.28;4.18;;;22.20;96.70;;;;;;5097256;27;20092;-76
2021/06/10 00:38:22;;;;;;;4.95;4.45;;;22.30;96.70;;;;;;5097481;27;20110;-76
2021/06/10 00:40:51;;;;;;;4.55;4.15;;;22.30;96.70;;;;;;5097830;27;20046;-76
2021/06/10 00:43:21;;;;;;;5.32;4.72;;;22.30;96.70;;;;;;5099409;28;20042;-76
2021/06/10 00:45:51;;;;;;;5.53;4.43;;;22.20;96.70;;;;;;5096524;27;20043;-76
2021/06/10 00:48:21;;;;;;;7.03;4.88;;;22.00;96.70;;;;;;5103078;28;20046;-76
2021/06/10 00:50:51;;;;;;;4.78;4.20;;;22.00;96.70;;;;;;5098880;28;20047;-75
2021/06/10 00:54:15;;;;;;;6.93;4.32;;;22.00;96.70;;;;;;5101156;28;20036;-76
2021/06/10 00:56:46;;;;;;;4.75;4.20;;;21.90;96.70;;;;;;5104392;28;20496;-76
2021/06/10 00:59:16;;;;;;;4.68;4.25;;;21.90;96.70;;;;;;5097417;28;20044;-76
2021/06/10 01:01:45;;;;;;;5.32;4.10;;;21.90;96.70;;;;;;5102377;28;20138;-76
2021/06/10 01:04:15;;;;;;;4.57;4.00;;;21.90;96.70;;;;;;5102751;27;20122;-76
2021/06/10 01:06:52;;;;;;;7.53;4.93;;;22.00;96.70;;;;;;5085930;28;20050;-76
2021/06/10 01:09:24;;;;;;;;;;;22.10;96.70;;;;;;5098769;27;20591;-76
2021/06/10 01:12:02;;;;;;;5.75;4.13;;;22.10;96.70;;;;;;5116965;27;19930;-76
2021/06/10 01:14:37;;;;;;;5.38;4.22;;;22.00;96.70;;;;;;5101264;28;20082;-76
2021/06/10 01:17:07;;;;;;;6.45;5.10;;;22.00;96.70;;;;;;5105463;27;20047;-76
2021/06/10 01:19:55;;;;;;;5.70;4.43;;;22.00;96.70;;;;;;5099042;27;20048;-76
2021/06/10 01:22:36;;;;;;;5.88;4.35;;;21.90;96.70;;;;;;5104075;27;20191;-76
2021/06/10 01:25:14;;;;;;;5.65;4.70;;;21.80;96.70;;;;;;5101962;27;20175;-76
2021/06/10 01:27:48;;;;;;;4.95;4.45;;;21.80;96.70;;;;;;5099544;27;20440;-76
2021/06/10 01:30:21;;;;;;;5.50;4.72;;;21.70;96.70;;;;;;5101151;27;20072;-76
2021/06/10 01:32:55;;;;;;;4.50;4.10;;;21.60;96.70;;;;;;5086217;28;20043;-77
2021/06/10 01:35:27;;;;;;;5.35;4.35;;;21.70;96.70;;;;;;5098981;28;21191;-76
2021/06/10 01:37:58;;;;;;;5.13;4.63;;;21.70;96.70;;;;;;5103287;27;20036;-76
2021/06/10 01:40:29;;;;;;;6.15;4.55;;;21.60;96.70;;;;;;5104200;27;20131;-76
2021/06/10 01:43:02;;;;;;;5.38;4.28;;;21.50;96.70;;;;;;5094868;28;20039;-78
2021/06/10 01:45:33;;;;;;;4.70;4.28;;;21.60;96.70;;;;;;5099353;27;20097;-76
2021/06/10 01:48:04;;;;;;;5.55;4.10;;;21.60;96.70;;;;;;5101935;27;20115;-76
2021/06/10 01:50:35;;;;;;;5.15;4.05;;;21.50;96.70;;;;;;5100056;27;20035;-76
2021/06/10 01:53:05;;;;;;;4.85;4.10;;;21.40;96.70;;;;;;5101385;27;20247;-76
2021/06/10 01:55:37;;;;;;;4.25;3.85;;;21.40;96.70;;;;;;5102058;27;20300;-76
2021/06/10 01:58:10;;;;;;;4.38;3.97;;;21.40;96.70;;;;;;5098693;28;20116;-76
2021/06/10 02:00:41;;;;;;;6.78;3.97;;;21.40;96.70;;;;;;5105020;27;20151;-76
2021/06/10 02:03:12;;;;;;;4.28;3.80;;;21.40;96.70;;;;;;5101774;27;20684;-76
2021/06/10 02:05:43;;;;;;;4.78;4.00;;;21.40;96.70;;;;;;5098590;28;20035;-76
2021/06/10 02:08:14;;;;;;;4.80;4.40;;;21.40;96.70;;;;;;5098922;28;20494;-76
2021/06/10 02:10:48;;;;;;;4.43;4.03;;;21.40;96.70;;;;;;5102629;27;20556;-76
2021/06/10 02:13:22;;;;;;;5.10;4.60;;;21.30;96.70;;;;;;5100116;27;20397;-76
2021/06/10 02:15:54;;;;;;;4.60;4.20;;;21.20;96.70;;;;;;5104758;27;20109;-77
2021/06/10 02:18:24;;;;;;;5.00;4.25;;;21.20;96.70;;;;;;5102194;28;20058;-77
2021/06/10 02:20:57;;;;;;;6.70;4.90;;;21.20;96.70;;;;;;5085600;28;20048;-76
2021/06/10 02:23:27;;;;;;;4.85;3.72;;;21.10;96.70;;;;;;5100863;27;20056;-76
2021/06/10 02:25:56;;;;;;;4.95;4.25;;;21.20;96.70;;;;;;5104070;27;20039;-76
2021/06/10 02:29:08;;;;;;;4.80;4.40;;;21.10;96.70;;;;;;5104446;27;20059;-76
2021/06/10 02:31:38;;;;;;;6.40;4.03;;;21.10;96.70;;;;;;5098021;28;20108;-76
2021/06/10 02:34:07;;;;;;;6.43;4.80;;;21.20;96.70;;;;;;5103769;27;20035;-76
2021/06/10 02:36:38;;;;;;;5.03;4.03;;;21.20;96.70;;;;;;5107151;27;20321;-76
2021/06/10 02:39:11;;;;;;;4.40;4.00;;;21.20;96.70;;;;;;5103221;27;20089;-76
2021/06/10 02:41:45;;;;;;;5.97;4.40;;;21.10;96.70;;;;;;5100399;27;20096;-76
2021/06/10 02:44:16;;;;;;;4.78;4.25;;;21.10;96.70;;;;;;5104735;27;20214;-76
2021/06/10 02:46:47;;;;;;;4.88;4.30;;;21.10;96.70;;;;;;5098851;27;20047;-76
2021/06/10 02:52:46;;;;;;;6.05;4.05;;;21.10;96.70;;;;;;5102195;27;20200;-76
2021/06/10 02:55:20;;;;;;;5.72;4.20;;;21.00;96.70;;;;;;5093252;28;20043;-76
2021/06/10 02:57:52;;;;;;;6.05;4.57;;;20.90;96.70;;;;;;5113807;27;20040;-76
2021/06/10 03:00:25;;;;;;;7.28;5.18;;;20.90;96.70;;;;;;5103964;27;20051;-77
2021/06/10 03:02:56;;;;;;;5.28;4.80;;;20.80;96.70;;;;;;5102224;28;20047;-77
2021/06/10 03:05:26;;;;;;;7.53;4.53;;;20.80;96.70;;;;;;5099363;27;20036;-76
2021/06/10 03:07:56;;;;;;;5.03;4.53;;;20.70;96.70;;;;;;5100699;27;20096;-77
2021/06/10 03:10:26;;;;;;;6.80;4.47;;;20.70;96.70;;;;;;5099825;27;20039;-75
2021/06/10 03:12:57;;;;;;;5.28;4.40;;;20.70;96.70;;;;;;5094899;27;20047;-76
2021/06/10 03:15:29;;;;;;;4.47;3.85;;;20.80;96.70;;;;;;5102879;28;20043;-75
2021/06/10 03:18:01;;;;;;;5.72;4.30;;;20.70;96.70;;;;;;5103439;27;20055;-76
2021/06/10 03:20:47;;;;;;;4.78;4.28;;;20.50;96.70;;;;;;5098229;28;20047;-75
2021/06/10 03:23:16;;;;;;;5.10;4.53;;;20.60;96.70;;;;;;5093974;28;20044;-75
2021/06/10 03:25:44;;;;;;;5.75;4.38;;;20.70;96.70;;;;;;5096778;28;20035;-75
2021/06/10 03:28:13;;;;;;;6.97;4.38;;;20.70;96.70;;;;;;5097370;27;20089;-75
2021/06/10 03:30:41;;;;;;;5.28;4.85;;;20.70;96.70;;;;;;5102017;27;20031;-76
2021/06/10 03:33:11;;;;;;;6.90;5.00;;;20.70;96.70;;;;;;5098596;27;20046;-75
2021/06/10 03:35:40;;;;;;;6.43;4.90;;;20.60;96.70;;;;;;5114103;27;20036;-76
2021/06/10 03:38:09;;;;;;;6.90;5.18;;;20.60;96.70;;;;;;5114409;27;20062;-76
2021/06/10 03:40:38;;;;;;;5.57;4.70;;;20.60;96.70;;;;;;5103290;27;20046;-75
2021/06/10 03:43:09;;;;;;;5.60;4.30;;;20.60;96.70;;;;;;5097140;27;20071;-75
2021/06/10 03:45:39;;;;;;;4.90;4.40;;;20.60;96.70;;;;;;5100713;27;20580;-75
2021/06/10 03:48:13;;;;;;;4.50;4.10;;;20.60;96.70;;;;;;5093585;28;20118;-75
2021/06/10 03:50:43;;;;;;;6.55;4.70;;;20.60;96.70;;;;;;5100781;27;20039;-75
2021/06/10 03:53:13;;;;;;;7.88;4.50;;;20.60;96.70;;;;;;5097508;28;20090;-75
2021/06/10 03:55:42;;;;;;;5.40;4.38;;;20.60;96.70;;;;;;5103214;27;20499;-76
2021/06/10 03:58:12;;;;;;;5.75;4.38;;;20.60;96.70;;;;;;5096995;28;20097;-76
2021/06/10 04:00:41;;;;;;;4.75;4.35;;;20.60;96.70;;;;;;5101266;27;20110;-75
2021/06/10 04:03:13;;;;;;;5.85;4.57;;;20.50;96.70;;;;;;5100539;28;20512;-75
2021/06/10 04:05:43;;;;;;;5.70;4.22;;;20.60;96.70;;;;;;5086075;28;20134;-75
2021/06/10 04:08:11;;;;;;;7.25;4.07;;;20.50;96.70;;;;;;5099459;27;20094;-76
2021/06/10 04:10:39;;;;;;;5.75;3.80;;;20.60;96.70;;;;;;5098491;27;20509;-75
2021/06/10 04:13:07;;;;;;;5.20;4.13;;;20.50;96.70;;;;;;5098805;27;20462;-76
2021/06/10 04:15:36;;;;;;;6.75;4.45;;;20.50;96.70;;;;;;5105252;27;20044;-75
2021/06/10 04:18:04;;;;;;;4.78;4.32;;;20.40;96.70;;;;;;5101635;27;20395;-75
2021/06/10 04:20:33;;;;;;;6.63;4.07;;;20.40;96.70;;;;;;5100172;28;20036;-76
2021/06/10 04:23:02;;;;;;;5.82;4.40;;;20.40;96.70;;;;;;5098429;28;20062;-76
2021/06/10 04:26:09;;;;;;;4.80;4.40;;;20.50;96.70;;;;;;5069993;28;20639;-76
2021/06/10 04:32:15;;;;;;;7.00;5.15;;;20.40;96.70;;;;;;5052718;28;20519;-75
2021/06/10 04:34:43;;;;;;;5.40;4.90;;;20.40;96.70;;;;;;5030698;28;20131;-76
2021/06/10 04:37:13;;;;;;;7.03;4.82;;;20.40;96.70;;;;;;5058761;28;20138;-76
2021/06/10 04:39:41;;;;;;;7.43;5.13;;;20.20;96.70;;;;;;5061525;28;20051;-76
2021/06/10 04:42:10;;;;;;;7.53;4.72;;;20.20;96.70;;;;;;5056099;28;20553;-76
2021/06/10 04:44:38;;;;;;;5.10;4.60;;;20.20;96.70;;;;;;5064581;28;20148;-76
2021/06/10 04:47:08;;;;;;;4.50;4.10;;;20.20;96.70;;;;;;5056270;28;20094;-76
2021/06/10 04:49:36;;;;;;;4.85;4.43;;;20.40;96.70;;;;;;5067146;28;20055;-76
2021/06/10 04:52:05;;;;;;;4.93;4.40;;;20.50;96.70;;;;;;5097876;28;20046;-76
2021/06/10 04:54:35;;;;;;;6.57;4.97;;;20.50;96.70;;;;;;5097799;28;20085;-76
2021/06/10 04:57:04;;;;;;;5.45;4.93;;;20.60;96.70;;;;;;5095233;28;20131;-76
2021/06/10 04:59:32;;;;;;;5.60;5.00;;;20.50;96.70;;;;;;5098799;28;20119;-76
2021/06/10 05:02:05;;;;;;;5.75;5.13;;;20.60;96.70;;;;;;5099298;28;20067;-76
2021/06/10 05:04:33;;;;;;;6.30;5.22;;;20.70;96.70;;;;;;5083628;28;20039;-75
2021/06/10 05:07:01;;;;;;;5.55;4.95;;;20.70;96.70;;;;;;5098599;28;20172;-76
2021/06/10 05:09:29;;;;;;;6.82;4.75;;;20.70;96.70;;;;;;5099469;28;20105;-76
2021/06/10 05:11:58;;;;;;;7.22;5.13;;;20.80;96.70;;;;;;5107378;27;20044;-76
2021/06/10 05:14:26;;;;;;;6.20;5.03;;;20.90;96.70;;;;;;5075455;28;20051;-76
2021/06/10 05:16:54;;;;;;;5.82;4.85;;;20.90;96.70;;;;;;5100885;28;20058;-76
2021/06/10 05:19:22;;;;;;;6.55;5.13;;;20.90;96.70;;;;;;5096897;28;20049;-76
2021/06/10 05:21:50;;;;;;;7.47;5.50;;;21.00;96.70;;;;;;5098825;28;20067;-76
2021/06/10 05:24:19;;;;;;;7.32;5.32;;;21.00;96.70;;;;;;5102426;28;20043;-76
2021/06/10 05:26:47;;;;;;;7.03;5.55;;;21.00;96.70;;;;;;5084270;28;20047;-76
2021/06/10 05:29:16;;;;;;;7.35;5.55;;;21.10;96.70;;;;;;5099827;28;20292;-76
2021/06/10 05:31:44;;;;;;;7.30;5.38;;;21.20;96.70;;;;;;5096196;27;20046;-76
2021/06/10 05:34:12;;;;;;;8.30;5.70;;;21.10;96.70;;;;;;5093476;28;20520;-76
2021/06/10 05:36:40;;;;;;;10.45;6.30;;;21.00;96.70;;;;;;5100641;28;20039;-76
2021/06/10 05:39:08;;;;;;;9.93;7.18;;;21.00;96.70;;;;;;5101961;28;20044;-76
2021/06/10 05:41:36;;;;;;;9.30;6.90;;;20.90;96.70;;;;;;5100189;27;20035;-76
2021/06/10 05:44:05;;;;;;;9.38;6.97;;;21.00;96.70;;;;;;5097004;28;20790;-76
2021/06/10 05:46:34;;;;;;;9.77;7.40;;;21.00;96.70;;;;;;5101157;28;20032;-76
2021/06/10 05:49:02;;;;;;;9.85;7.03;;;21.10;96.70;;;;;;5101263;28;20100;-76
2021/06/10 05:51:30;;;;;;;8.95;6.80;;;21.10;96.70;;;;;;5097309;28;20579;-77
2021/06/10 05:53:58;;;;;;;9.57;7.10;;;21.20;96.70;;;;;;5099031;28;20043;-77
2021/06/10 05:56:26;;;;;;;8.63;7.70;;;21.30;96.70;;;;;;5100090;27;20046;-76
2021/06/10 05:58:54;;;;;;;10.77;7.35;;;21.40;96.70;;;;;;5103425;27;20068;-76
2021/06/10 06:01:22;;;;;;;9.57;7.20;;;21.50;96.70;;;;;;5105455;27;20062;-76
2021/06/10 06:03:51;;;;;;;11.10;7.72;;;21.50;96.70;;;;;;5103446;27;20047;-75
2021/06/10 06:06:20;;;;;;;9.27;7.38;;;21.50;96.70;;;;;;5100951;28;20592;-75
2021/06/10 06:08:48;;;;;;;9.93;7.40;;;21.60;96.70;;;;;;5098279;27;20054;-76
2021/06/10 06:11:16;;;;;;;9.38;8.48;;;21.70;96.70;;;;;;5102534;27;20047;-76
2021/06/10 06:13:46;;;;;;;13.45;8.57;;;21.70;96.70;;;;;;5121103;27;20055;-76
2021/06/10 06:16:17;;;;;;;15.57;10.43;;;21.70;96.70;;;;;;5104126;28;20043;-76
2021/06/10 06:18:46;;;;;;;15.20;10.43;;;21.70;96.70;;;;;;5103344;27;20454;-76
2021/06/10 06:21:16;;;;;;;15.38;11.13;;;21.80;96.70;;;;;;5097597;27;20786;-75
2021/06/10 06:23:44;;;;;;;20.63;13.63;;;21.90;96.70;;;;;;5102460;27;20047;-75
2021/06/10 06:26:12;;;;;;;25.15;15.38;;;22.00;96.70;;;;;;5100090;27;20035;-75
2021/06/10 06:28:40;;;;;;;22.45;13.80;;;22.00;96.70;;;;;;5104517;27;20487;-75
2021/06/10 06:31:08;;;;;;;19.95;14.35;;;22.10;96.70;;;;;;5083261;28;20508;-75
2021/06/10 06:33:37;;;;;;;16.27;11.38;;;22.10;96.70;;;;;;5100873;28;20036;-75
2021/06/10 06:36:06;;;;;;;13.27;10.43;;;22.00;96.70;;;;;;5104081;27;20093;-75
2021/06/10 06:38:35;;;;;;;14.52;9.90;;;22.00;96.70;;;;;;5093179;27;20127;-75
2021/06/10 06:41:03;;;;;;;11.60;8.90;;;22.20;96.70;;;;;;5096786;28;20055;-75
2021/06/10 06:43:31;;;;;;;10.65;8.73;;;22.20;96.70;;;;;;5096120;27;20047;-75
2021/06/10 06:46:03;;;;;;;11.65;8.85;;;22.30;96.70;;;;;;5099435;27;20035;-76
2021/06/10 06:48:31;;;;;;;10.50;9.40;;;22.40;96.70;;;;;;5103176;27;20067;-76
2021/06/10 06:51:00;;;;;;;9.82;8.82;;;22.40;96.70;;;;;;5097418;27;20118;-76
2021/06/10 06:53:31;;;;;;;8.88;8.07;;;22.40;96.70;;;;;;5101925;27;20048;-76
2021/06/10 06:56:21;;;;;;;14.20;8.80;;;22.50;96.70;;;;;;5102606;27;20508;-76
2021/06/10 06:58:49;;;;;;;9.93;8.73;;;22.60;96.70;;;;;;5104477;27;20052;-76
2021/06/10 07:01:17;;;;;;;9.40;8.50;;;22.60;96.70;;;;;;5098799;27;20414;-76
2021/06/10 07:03:45;;;;;;;10.07;8.30;;;22.70;96.70;;;;;;5099628;28;20043;-76
2021/06/10 07:06:13;;;;;;;9.50;7.65;;;22.80;96.70;;;;;;5098103;28;20040;-76
2021/06/10 07:08:41;;;;;;;9.05;8.18;;;22.80;96.70;;;;;;5099951;27;20040;-76
2021/06/10 07:11:09;;;;;;;11.43;8.63;;;22.90;96.70;;;;;;5096789;27;20500;-76
2021/06/10 07:13:38;;;;;;;12.07;10.52;;;22.90;96.70;;;;;;5099597;28;20050;-76
2021/06/10 07:16:06;;;;;;;9.02;8.23;;;22.90;96.70;;;;;;5096039;28;20042;-76
2021/06/10 07:18:35;;;;;;;9.73;8.75;;;23.00;96.70;;;;;;5101313;27;20067;-75
2021/06/10 07:21:03;;;;;;;11.60;9.82;;;23.00;96.70;;;;;;5102666;27;20043;-76
2021/06/10 07:23:31;;;;;;;9.88;8.82;;;23.10;96.70;;;;;;5099563;27;20046;-76
2021/06/10 07:25:59;;;;;;;11.23;9.73;;;23.20;96.70;;;;;;5101531;27;20195;-75
2021/06/10 07:28:27;;;;;;;10.15;9.15;;;23.20;96.70;;;;;;5102749;27;20670;-76
2021/06/10 07:30:57;;;;;;;13.88;11.27;;;23.30;96.70;;;;;;5099050;28;20095;-76
2021/06/10 07:33:25;;;;;;;12.45;11.25;;;23.30;96.70;;;;;;5101080;27;20036;-76
2021/06/10 07:35:53;;;;;;;11.55;10.35;;;23.40;96.70;;;;;;5100204;28;20089;-76
2021/06/10 07:38:21;;;;;;;11.63;9.25;;;23.50;96.70;;;;;;5103277;27;20042;-75
2021/06/10 07:40:48;;;;;;;13.20;10.15;;;23.60;96.70;;;;;;5100328;27;20035;-75
2021/06/10 07:43:16;;;;;;;12.98;10.43;;;23.60;96.70;;;;;;5098095;27;20052;-76
2021/06/10 07:45:44;;;;;;;12.35;11.10;;;23.70;96.70;;;;;;5102170;27;20028;-76
2021/06/10 07:48:14;;;;;;;10.55;9.48;;;23.90;96.70;;;;;;5098308;27;20066;-76
2021/06/10 07:50:42;;;;;;;10.57;9.55;;;23.90;96.70;;;;;;5104752;27;20051;-76
2021/06/10 07:53:10;;;;;;;12.85;9.77;;;23.90;96.70;;;;;;5104010;27;20035;-76
2021/06/10 07:55:41;;;;;;;9.95;8.63;;;23.90;96.70;;;;;;5095319;28;20089;-76
2021/06/10 07:58:09;;;;;;;11.50;10.30;;;24.10;96.70;;;;;;5099512;27;20501;-76
2021/06/10 08:00:37;;;;;;;12.15;9.85;;;24.20;96.70;;;;;;5101654;27;20078;-76
2021/06/10 08:03:05;;;;;;;10.82;9.73;;;24.20;96.70;;;;;;5100441;27;20046;-76
2021/06/10 08:05:35;;;;;;;9.50;8.70;;;24.30;96.70;;;;;;5103945;27;20130;-76
2021/06/10 08:08:03;;;;;;;10.68;8.80;;;24.40;96.70;;;;;;5094193;27;20039;-76
2021/06/10 08:10:31;;;;;;;11.93;9.40;;;24.40;96.70;;;;;;5102958;27;20031;-77
2021/06/10 08:12:59;;;;;;;12.05;10.85;;;24.50;96.70;;;;;;5101337;27;20100;-76
2021/06/10 08:15:27;;;;;;;10.85;9.73;;;24.60;96.70;;;;;;5102114;27;20043;-76
2021/06/10 08:17:55;;;;;;;27.08;14.63;;;24.70;96.70;;;;;;5101275;27;20067;-76
2021/06/10 08:20:25;;;;;;;11.82;9.55;;;24.90;96.70;;;;;;5097385;28;20613;-76
2021/06/10 08:22:56;;;;;;;9.82;8.93;;;24.90;96.70;;;;;;5097629;27;20070;-76
2021/06/10 08:25:27;;;;;;;21.23;9.18;;;25.00;96.70;;;;;;5095285;28;20130;-77
2021/06/10 08:27:55;;;;;;;13.38;9.48;;;25.10;96.70;;;;;;5115090;27;20123;-75
2021/06/10 08:30:24;;;;;;;9.73;8.82;;;25.20;96.70;;;;;;5119542;27;20035;-76
2021/06/10 08:32:52;;;;;;;10.93;9.82;;;25.30;96.70;;;;;;5097303;28;20032;-76
2021/06/10 08:35:21;;;;;;;10.65;9.45;;;25.40;96.70;;;;;;5103933;27;20038;-75
2021/06/10 08:37:50;;;;;;;11.07;9.23;;;25.30;96.70;;;;;;5102034;27;20496;-76
2021/06/10 08:40:20;;;;;;;11.18;9.15;;;25.40;96.70;;;;;;5106922;27;20927;-75
2021/06/10 08:42:49;;;;;;;10.55;8.57;;;25.60;96.70;;;;;;5095468;28;20067;-75
2021/06/10 08:45:19;;;;;;;12.10;9.68;;;25.70;96.70;;;;;;5095339;28;20048;-75
2021/06/10 08:47:49;;;;;;;9.63;8.77;;;25.80;96.70;;;;;;5100501;28;21987;-75
2021/06/10 08:50:22;;;;;;;8.30;7.57;;;25.90;96.70;;;;;;5096856;28;20044;-76
2021/06/10 08:52:51;;;;;;;10.32;8.25;;;26.00;96.70;;;;;;5097418;27;20039;-75
2021/06/10 08:55:21;;;;;;;9.77;8.75;;;26.00;96.70;;;;;;5095487;28;20057;-76
2021/06/10 08:57:50;;;;;;;9.85;8.13;;;26.10;96.70;;;;;;5097549;28;20130;-76
2021/06/10 09:00:28;;;;;;;9.02;8.10;;;26.10;96.70;;;;;;5099007;28;20052;-76
2021/06/10 09:02:58;;;;;;;9.27;7.75;;;26.10;96.70;;;;;;5101869;28;20036;-76
2021/06/10 09:05:29;;;;;;;8.93;8.02;;;26.30;96.70;;;;;;5102808;28;20081;-76
2021/06/10 09:07:58;;;;;;;9.35;8.45;;;26.20;96.70;;;;;;5100513;28;20055;-76
2021/06/10 09:10:29;;;;;;;9.32;8.52;;;26.10;96.70;;;;;;5109032;28;20541;-75
2021/06/10 09:12:59;;;;;;;10.70;9.23;;;26.20;96.70;;;;;;5102346;28;20040;-76
2021/06/10 09:15:31;;;;;;;9.63;8.35;;;26.50;96.70;;;;;;5097202;28;20420;-76
2021/06/10 09:18:01;;;;;;;8.88;8.07;;;26.70;96.70;;;;;;5096472;28;20404;-76
2021/06/10 09:20:41;;;;;;;9.38;7.88;;;26.90;96.70;;;;;;5097175;28;20055;-76
2021/06/10 09:23:23;;;;;;;8.70;7.57;;;27.00;96.50;;;;;;5098571;28;20032;-75
2021/06/10 09:26:03;;;;;;;8.90;8.10;;;27.00;96.00;;;;;;5101221;27;20044;-76
2021/06/10 09:28:32;;;;;;;9.32;8.35;;;27.10;94.90;;;;;;5102822;28;20194;-76
2021/06/10 09:31:01;;;;;;;9.18;8.27;;;27.00;95.10;;;;;;5088611;28;20617;-76
2021/06/10 09:33:39;;;;;;;8.35;7.38;;;27.00;95.00;;;;;;5103674;27;20043;-76
2021/06/10 09:36:08;;;;;;;9.05;8.23;;;27.10;94.60;;;;;;5107303;27;20043;-76
2021/06/10 09:38:36;;;;;;;8.50;7.70;;;27.10;94.00;;;;;;5101142;27;20497;-75
2021/06/10 09:41:07;;;;;;;7.63;6.93;;;27.10;93.30;;;;;;5104710;27;20043;-76
2021/06/10 09:43:42;;;;;;;7.70;6.93;;;27.10;93.10;;;;;;5090835;28;20070;-76
2021/06/10 09:46:10;;;;;;;8.57;7.73;;;27.20;93.50;;;;;;5098803;27;20278;-75
2021/06/10 09:48:38;;;;;;;7.15;6.65;;;27.30;93.00;;;;;;5100225;27;20089;-76
2021/06/10 09:51:20;;;;;;;7.72;7.03;;;27.20;92.70;;;;;;5114665;27;20040;-76
2021/06/10 09:53:49;;;;;;;8.75;7.50;;;27.20;92.80;;;;;;5100764;27;20140;-76
2021/06/10 09:56:18;;;;;;;7.38;6.50;;;27.20;92.70;;;;;;5105982;27;20499;-76
2021/06/10 09:58:54;;;;;;;8.07;7.28;;;27.40;91.60;;;;;;5097614;27;20040;-76
2021/06/10 10:01:23;;;;;;;7.60;6.88;;;27.70;90.60;;;;;;5118487;27;20066;-75
2021/06/10 10:03:53;;;;;;;8.15;6.50;;;27.90;90.30;;;;;;5098977;27;20134;-76
2021/06/10 10:06:24;;;;;;;8.30;6.10;;;28.10;89.40;;;;;;5096921;28;20059;-75
2021/06/10 10:08:54;;;;;;;7.30;6.60;;;28.40;89.20;;;;;;5100188;28;20440;-76
2021/06/10 10:11:25;;;;;;;11.10;7.47;;;28.40;89.20;;;;;;5102075;27;20040;-76
2021/06/10 10:13:56;;;;;;;7.07;6.40;;;28.30;88.60;;;;;;5099472;27;20490;-75
2021/06/10 10:16:26;;;;;;;9.38;6.55;;;28.40;88.90;;;;;;5100799;28;20101;-75
2021/06/10 10:18:55;;;;;;;6.35;4.85;;;28.60;88.70;;;;;;5101486;28;20139;-76
2021/06/10 10:21:28;;;;;;;8.75;5.85;;;28.80;86.50;;;;;;5110291;27;20305;-76
2021/06/10 10:24:00;;;;;;;6.50;5.90;;;29.10;85.80;;;;;;5117683;27;20047;-76
2021/06/10 10:26:30;;;;;;;6.57;5.97;;;29.30;85.10;;;;;;5099282;27;20468;-75
2021/06/10 10:29:00;;;;;;;5.90;5.22;;;29.40;84.90;;;;;;5104598;27;20055;-76
2021/06/10 10:31:29;;;;;;;6.95;5.80;;;29.50;84.00;;;;;;5099205;27;20036;-75
2021/06/10 10:33:57;;;;;;;6.30;5.63;;;29.40;83.10;;;;;;5102479;27;20067;-75
2021/06/10 10:36:28;;;;;;;6.53;5.82;;;29.50;84.40;;;;;;5102084;27;20040;-76
2021/06/10 10:38:58;;;;;;;7.18;6.32;;;29.20;84.70;;;;;;5101447;27;20052;-76
2021/06/10 10:41:26;;;;;;;7.55;6.13;;;29.30;83.60;;;;;;5101400;27;20096;-76
2021/06/10 10:44:22;;;;;;;6.75;5.70;;;29.10;84.00;;;;;;5102752;27;20039;-75
2021/06/10 10:47:13;;;;;;;6.38;5.88;;;29.20;84.60;;;;;;5102315;27;20589;-76
2021/06/10 10:49:43;;;;;;;6.60;6.00;;;29.20;83.60;;;;;;5091871;27;20247;-76
2021/06/10 10:52:27;;;;;;;6.38;5.72;;;28.80;84.60;;;;;;5098302;27;20046;-76
2021/06/10 10:55:13;;;;;;;6.55;5.90;;;28.90;85.00;;;;;;5100982;27;20059;-76
2021/06/10 10:57:44;;;;;;;6.05;5.45;;;28.80;84.00;;;;;;5100086;27;20067;-76
2021/06/10 11:00:20;;;;;;;5.55;5.05;;;28.80;83.80;;;;;;5098667;28;20135;-76
2021/06/10 11:03:17;;;;;;;5.18;4.57;;;29.10;83.40;;;;;;5103214;28;20054;-76
2021/06/10 11:05:46;;;;;;;6.75;4.97;;;29.00;82.70;;;;;;5102882;27;20044;-75
2021/06/10 11:08:14;;;;;;;6.30;5.65;;;29.10;82.90;;;;;;5102029;28;20043;-76
2021/06/10 11:11:09;;;;;;;5.78;5.28;;;29.30;81.80;;;;;;5102590;27;20050;-75
2021/06/10 11:13:48;;;;;;;6.82;5.50;;;29.20;81.10;;;;;;5100789;27;20075;-76
2021/06/10 11:16:18;;;;;;;6.05;5.45;;;29.10;81.90;;;;;;5099424;27;20072;-76
2021/06/10 11:18:52;;;;;;;6.00;5.50;;;29.20;83.20;;;;;;5097299;27;20032;-76
2021/06/10 11:21:49;;;;;;;6.43;5.57;;;29.10;81.70;;;;;;5097260;27;20043;-76
2021/06/10 11:24:21;;;;;;;8.68;5.93;;;28.90;82.70;;;;;;5095577;28;21092;-76
2021/06/10 11:26:53;;;;;;;7.57;5.03;;;28.70;83.10;;;;;;5086917;27;20583;-76
2021/06/10 11:29:22;;;;;;;5.50;5.07;;;28.50;83.30;;;;;;5097374;27;20054;-76
2021/06/10 11:32:23;;;;;;;5.40;4.90;;;28.30;83.50;;;;;;5098408;27;20035;-76
2021/06/10 11:34:55;;;;;;;13.50;7.65;;;28.10;84.80;;;;;;5083978;28;20047;-76
2021/06/10 11:37:28;;;;;;;11.98;7.18;;;27.50;90.80;;;;;;5098424;27;20081;-75
2021/06/10 11:39:56;;;;;;;17.00;6.28;;;26.90;92.60;;;;;;5083597;28;20044;-75
2021/06/10 11:42:26;;;;;;;10.15;5.47;;;26.10;91.50;;;;;;5102768;27;20037;-76
2021/06/10 11:44:55;;;;;;;9.00;6.30;;;25.70;90.80;;;;;;5099909;28;20188;-75
2021/06/10 11:47:28;;;;;;;11.32;6.47;;;25.60;93.60;;;;;;5093681;28;20117;-75
2021/06/10 11:49:57;;;;;;;12.52;7.70;;;25.30;96.70;;;;;;5099005;28;20456;-74
2021/06/10 11:52:46;;;;;;;12.10;8.90;;;25.00;96.70;;;;;;5099264;27;20043;-75
2021/06/10 11:55:14;;;;;;;15.40;8.50;;;24.80;96.70;;;;;;5097595;28;20046;-75
2021/06/10 11:57:42;;;;;;;11.20;7.85;;;24.50;96.70;;;;;;5097620;28;20027;-75
2021/06/10 12:00:12;;;;;;;11.45;6.85;;;24.40;96.70;;;;;;5092630;28;20467;-75
2021/06/10 12:02:41;;;;;;;10.55;7.18;;;24.40;96.70;;;;;;5078883;28;23838;-75
2021/06/10 12:05:15;;;;;;;11.05;8.88;;;24.30;96.70;;;;;;5106357;27;20084;-75
2021/06/10 12:07:43;;;;;;;11.25;7.80;;;24.30;96.70;;;;;;5120041;27;20040;-75
2021/06/10 12:10:17;;;;;;;9.38;8.32;;;24.30;96.70;;;;;;5098253;28;20509;-75
2021/06/10 12:12:48;;;;;;;9.23;8.20;;;24.30;96.70;;;;;;5093865;28;20899;-75
2021/06/10 12:15:34;;;;;;;9.50;8.52;;;24.40;96.70;;;;;;5083274;28;20047;-75
2021/06/10 12:18:06;;;;;;;11.00;8.90;;;24.40;96.70;;;;;;5100872;27;20057;-75
2021/06/10 12:20:53;;;;;;;10.38;9.57;;;24.40;96.70;;;;;;5098604;27;20055;-75
2021/06/10 12:23:30;;;;;;;9.93;9.02;;;24.30;96.70;;;;;;5098632;27;20558;-76
2021/06/10 12:26:00;;;;;;;9.82;8.82;;;24.30;96.70;;;;;;5098104;27;20382;-75
2021/06/10 12:28:44;;;;;;;9.02;7.95;;;24.20;96.70;;;;;;5082976;28;20122;-75
2021/06/10 12:31:15;;;;;;;6.93;6.32;;;24.10;96.70;;;;;;5095506;28;20417;-75
2021/06/10 12:33:47;;;;;;;6.88;6.25;;;23.90;96.70;;;;;;5100473;28;20131;-75
2021/06/10 12:36:19;;;;;;;9.95;6.18;;;23.80;96.70;;;;;;5081135;28;20043;-75
2021/06/10 12:38:58;;;;;;;6.95;6.25;;;23.70;96.70;;;;;;5100476;27;20185;-75
2021/06/10 12:41:29;;;;;;;7.80;5.85;;;23.70;96.70;;;;;;5096823;27;20088;-75
2021/06/10 12:44:09;;;;;;;8.60;5.97;;;23.70;96.70;;;;;;5085898;28;20051;-75
2021/06/10 12:46:48;;;;;;;11.95;7.60;;;23.70;96.70;;;;;;5098417;28;20099;-75
2021/06/10 12:49:22;;;;;;;12.07;7.60;;;23.80;96.70;;;;;;5095162;28;20092;-75
2021/06/10 12:51:53;;;;;;;11.65;7.97;;;23.80;96.70;;;;;;5086980;28;20251;-75
2021/06/10 12:54:30;;;;;;;6.72;4.68;;;23.80;96.70;;;;;;5100509;27;20035;-75
2021/06/10 12:56:59;;;;;;;8.50;4.70;;;23.80;96.70;;;;;;5093337;28;20068;-75
2021/06/10 12:59:30;;;;;;;5.13;4.25;;;23.80;96.70;;;;;;5101704;27;20080;-75
2021/06/10 13:02:17;;;;;;;7.85;4.82;;;23.80;96.70;;;;;;5097583;28;20043;-75
2021/06/10 13:04:49;;;;;;;5.38;4.40;;;23.90;96.70;;;;;;5102324;28;20455;-75
2021/06/10 13:07:29;;;;;;;6.30;4.28;;;24.00;96.70;;;;;;5087741;28;20071;-75
2021/06/10 13:10:01;;;;;;;6.95;4.53;;;24.00;96.70;;;;;;5096299;28;20049;-75
2021/06/10 13:12:30;;;;;;;6.10;4.43;;;24.00;96.70;;;;;;5105657;28;20419;-75